Terminal Aerodrome Forecast
Issued by NWS

Home | Current Version | Previous Version | Text Only | Print | Product List | Glossary On
Versions: 1 2 3 4 5 6 7 8 9 10 11 12 13 14 15 16 17 18
000
FTUS45 KGJT 240520
TAFMTJ
TAF
KMTJ 240520Z 2406/2506 25005KT P6SM SCT120
     FM241000 15006KT P6SM SKC
     FM241700 36005KT P6SM SCT200
     FM250100 30008KT P6SM FEW200=

USA.gov is the U.S. government's official web portal to all federal, state and local government web resources and services.